Time;durP1;ratioP1;P1;durP2;ratioP2;P2;SDS_P1;SDS_P2;PMS_P1;PMS_P2;Temp;Humidity;BMP_temperature;BMP_pressure;BME280_temperature;BME280_humidity;BME280_pressure;Samples;Min_cycle;Max_cycle;Signal;HPM_P1;HPM_P2
2021/06/10 00:49:29;;;;;;;8.53;5.60;;;21.20;95.10;;;;;;5553499;23;20588;-43
2021/06/10 00:51:57;;;;;;;9.20;5.80;;;21.20;95.50;;;;;;4980016;28;20499;-49
2021/06/10 00:54:23;;;;;;;7.47;6.10;;;21.20;95.80;;;;;;4990252;28;20478;-45
2021/06/10 00:56:52;;;;;;;6.10;4.97;;;21.20;95.90;;;;;;4982740;28;20541;-47
2021/06/10 00:59:19;;;;;;;8.60;6.10;;;21.30;96.20;;;;;;4987438;28;20444;-48
2021/06/10 01:01:45;;;;;;;7.47;6.13;;;21.30;96.30;;;;;;4991676;28;20458;-51
2021/06/10 01:04:11;;;;;;;10.87;5.33;;;21.30;96.40;;;;;;4981861;28;20451;-52
2021/06/10 01:06:50;;;;;;;12.30;6.07;;;21.30;97.10;;;;;;4979705;28;20465;-45
2021/06/10 01:09:24;;;;;;;8.87;6.13;;;21.30;97.70;;;;;;4987321;28;20454;-48
2021/06/10 01:11:59;;;;;;;5.50;5.00;;;21.30;98.20;;;;;;4984250;28;20437;-45
2021/06/10 01:14:31;;;;;;;8.57;5.80;;;21.30;98.70;;;;;;4978554;28;20481;-48
2021/06/10 01:17:01;;;;;;;6.70;5.93;;;21.30;99.20;;;;;;4977500;28;20451;-44
2021/06/10 01:19:44;;;;;;;6.97;5.63;;;21.30;99.80;;;;;;4970687;28;20597;-46
2021/06/10 01:22:23;;;;;;;6.67;6.07;;;21.30;99.90;;;;;;4980041;28;20505;-47
2021/06/10 01:24:55;;;;;;;7.43;6.20;;;21.30;99.90;;;;;;4984340;28;20462;-42
2021/06/10 01:27:25;;;;;;;7.50;6.70;;;21.30;99.90;;;;;;4979980;28;20451;-44
2021/06/10 01:29:58;;;;;;;6.70;6.10;;;21.20;99.90;;;;;;4972928;28;20467;-44
2021/06/10 01:32:26;;;;;;;7.60;5.77;;;21.30;99.90;;;;;;4988009;28;20440;-48
2021/06/10 01:34:52;;;;;;;7.00;6.20;;;21.30;99.90;;;;;;4981731;28;20447;-48
2021/06/10 01:37:20;;;;;;;6.80;5.57;;;21.20;99.90;;;;;;4969067;28;20455;-48
2021/06/10 01:39:49;;;;;;;9.27;6.30;;;21.20;99.90;;;;;;4979480;28;20462;-49
2021/06/10 01:42:16;;;;;;;7.47;5.97;;;21.10;99.90;;;;;;5001941;23;20588;-46
2021/06/10 01:44:47;;;;;;;7.67;5.73;;;21.10;99.90;;;;;;4976237;23;20498;-44
2021/06/10 01:47:15;;;;;;;6.30;5.67;;;21.20;99.90;;;;;;4970475;28;20461;-50
2021/06/10 01:49:42;;;;;;;7.40;6.10;;;21.20;99.90;;;;;;4974310;28;21053;-47
2021/06/10 01:52:10;;;;;;;8.00;6.57;;;21.10;99.90;;;;;;4969110;28;20455;-42
2021/06/10 01:54:37;;;;;;;6.00;5.40;;;21.10;99.90;;;;;;4970816;28;20507;-46
2021/06/10 01:57:04;;;;;;;6.50;5.90;;;21.00;99.90;;;;;;4970304;28;20438;-44
2021/06/10 01:59:32;;;;;;;5.90;5.30;;;20.80;99.90;;;;;;4970498;28;20469;-46
2021/06/10 02:02:01;;;;;;;9.73;6.10;;;20.70;99.90;;;;;;4966170;28;20450;-48
2021/06/10 02:04:40;;;;;;;8.90;5.97;;;20.70;99.90;;;;;;4960014;28;20455;-47
2021/06/10 02:07:07;;;;;;;7.30;5.67;;;20.60;99.90;;;;;;4969396;28;20443;-48
2021/06/10 02:09:34;;;;;;;9.07;6.63;;;20.60;99.90;;;;;;4960976;28;20464;-46
2021/06/10 02:12:01;;;;;;;17.30;6.53;;;20.60;99.90;;;;;;4968657;28;20462;-51
2021/06/10 02:14:29;;;;;;;6.33;5.43;;;20.60;99.90;;;;;;4964175;28;20451;-50
2021/06/10 02:16:56;;;;;;;7.07;6.37;;;20.60;99.90;;;;;;4969718;28;20842;-45
2021/06/10 02:19:27;;;;;;;9.47;6.10;;;20.60;99.90;;;;;;4972865;28;20443;-50
2021/06/10 02:21:53;;;;;;;8.33;6.20;;;20.60;99.90;;;;;;4983570;28;20466;-49
2021/06/10 02:24:20;;;;;;;7.60;6.10;;;20.60;99.90;;;;;;4999756;28;20452;-51
2021/06/10 02:26:46;;;;;;;7.00;6.00;;;20.60;99.90;;;;;;4992827;28;20466;-52
2021/06/10 02:29:13;;;;;;;10.67;6.07;;;20.60;99.90;;;;;;4997045;28;20439;-46
2021/06/10 02:31:39;;;;;;;8.30;6.50;;;20.50;99.90;;;;;;4984970;28;20494;-46
2021/06/10 02:34:07;;;;;;;9.47;6.73;;;20.50;99.90;;;;;;4994131;28;20423;-48
2021/06/10 02:36:39;;;;;;;6.43;5.40;;;20.50;99.90;;;;;;4988117;28;20440;-44
2021/06/10 02:39:08;;;;;;;8.73;6.40;;;20.50;99.90;;;;;;5009604;28;20453;-44
2021/06/10 02:41:37;;;;;;;6.40;5.80;;;20.40;99.90;;;;;;4998215;28;20443;-52
2021/06/10 02:44:04;;;;;;;6.93;5.03;;;20.40;99.90;;;;;;4998630;28;20464;-47
2021/06/10 02:46:31;;;;;;;6.50;5.53;;;20.50;99.90;;;;;;5020837;28;20445;-45
2021/06/10 02:48:58;;;;;;;7.80;6.03;;;20.50;99.90;;;;;;5001527;28;20430;-47
2021/06/10 02:51:29;;;;;;;7.03;5.90;;;20.50;99.90;;;;;;5002984;28;20479;-44
2021/06/10 02:53:57;;;;;;;9.43;5.90;;;20.50;99.90;;;;;;5008443;28;20435;-44
2021/06/10 02:56:24;;;;;;;12.20;6.30;;;20.50;99.90;;;;;;5004752;28;20447;-44
2021/06/10 02:58:52;;;;;;;10.37;6.57;;;20.40;99.90;;;;;;4998536;28;20443;-45
2021/06/10 03:01:18;;;;;;;18.13;6.40;;;20.40;99.90;;;;;;5017750;28;20434;-54
2021/06/10 03:03:45;;;;;;;9.10;6.83;;;20.30;99.90;;;;;;5002202;28;20446;-44
2021/06/10 03:06:11;;;;;;;7.57;6.30;;;20.30;99.90;;;;;;5003314;28;20431;-44
2021/06/10 03:08:39;;;;;;;7.27;6.00;;;20.30;99.90;;;;;;5012242;28;20457;-46
2021/06/10 03:11:08;;;;;;;15.80;7.73;;;20.40;99.90;;;;;;5006849;28;20473;-44
2021/06/10 03:13:37;;;;;;;11.77;6.07;;;20.50;99.90;;;;;;5009634;28;20461;-44
2021/06/10 03:16:05;;;;;;;9.43;5.40;;;20.50;99.90;;;;;;5013041;28;20425;-44
2021/06/10 03:18:32;;;;;;;7.13;5.90;;;20.50;99.90;;;;;;5013327;28;20426;-45
2021/06/10 03:21:00;;;;;;;8.00;5.77;;;20.60;99.90;;;;;;5011337;28;20461;-51
2021/06/10 03:23:26;;;;;;;7.10;5.27;;;20.60;99.90;;;;;;5009358;28;20434;-52
2021/06/10 03:25:53;;;;;;;10.50;5.30;;;20.60;99.90;;;;;;5016410;28;20446;-51
2021/06/10 03:28:22;;;;;;;7.47;6.10;;;20.70;99.90;;;;;;5016682;28;20453;-51
2021/06/10 03:30:48;;;;;;;6.47;5.07;;;20.70;99.90;;;;;;5016493;28;20497;-55
2021/06/10 03:33:15;;;;;;;6.03;5.43;;;20.80;99.90;;;;;;5015704;28;20442;-52
2021/06/10 03:35:43;;;;;;;8.60;5.90;;;20.80;99.90;;;;;;5007244;28;20421;-55
2021/06/10 03:38:13;;;;;;;9.07;5.20;;;20.80;99.90;;;;;;5011837;28;20470;-51
2021/06/10 03:40:40;;;;;;;8.27;6.17;;;20.90;99.90;;;;;;5003734;28;20442;-44
2021/06/10 03:43:06;;;;;;;5.17;4.70;;;20.80;99.90;;;;;;5010027;28;20485;-45
2021/06/10 03:45:37;;;;;;;6.60;5.73;;;20.90;99.90;;;;;;5020075;28;20445;-47
2021/06/10 03:48:04;;;;;;;12.10;6.83;;;20.90;99.90;;;;;;5004368;28;20423;-48
2021/06/10 03:50:31;;;;;;;6.60;5.83;;;20.90;99.90;;;;;;5003544;28;20490;-47
2021/06/10 03:52:58;;;;;;;8.50;6.83;;;20.90;99.90;;;;;;5012036;28;20454;-55
2021/06/10 03:55:24;;;;;;;10.83;6.00;;;20.90;99.90;;;;;;5012533;28;20466;-49
2021/06/10 03:57:50;;;;;;;9.33;7.10;;;20.90;99.90;;;;;;5003229;28;20458;-48
2021/06/10 04:00:17;;;;;;;12.40;7.07;;;21.00;99.90;;;;;;5004283;28;20455;-46
2021/06/10 04:02:47;;;;;;;6.50;5.90;;;21.00;99.90;;;;;;5009850;28;20467;-49
2021/06/10 04:05:13;;;;;;;7.67;5.27;;;21.00;99.90;;;;;;5017939;28;20446;-50
2021/06/10 04:07:39;;;;;;;11.33;6.00;;;20.90;99.90;;;;;;5008038;28;20486;-46
2021/06/10 04:10:07;;;;;;;8.20;6.37;;;21.00;99.90;;;;;;5011909;28;20534;-48
2021/06/10 04:12:33;;;;;;;9.17;6.83;;;20.90;99.90;;;;;;5009092;28;20447;-47
2021/06/10 04:15:00;;;;;;;9.70;5.90;;;20.90;99.90;;;;;;5021816;28;20453;-46
2021/06/10 04:17:26;;;;;;;8.77;5.93;;;20.90;99.90;;;;;;5008366;28;20447;-50
2021/06/10 04:19:54;;;;;;;7.93;5.93;;;20.90;99.90;;;;;;5007582;28;20430;-44
2021/06/10 04:22:20;;;;;;;6.33;5.80;;;20.90;99.90;;;;;;5002500;28;20460;-46
2021/06/10 04:24:46;;;;;;;8.10;5.63;;;20.90;99.90;;;;;;4995349;28;20485;-45
2021/06/10 04:27:13;;;;;;;8.30;6.60;;;20.90;99.90;;;;;;4993162;28;20429;-45
2021/06/10 04:29:39;;;;;;;11.70;8.20;;;20.90;99.90;;;;;;4993897;28;20456;-45
2021/06/10 04:32:06;;;;;;;6.53;5.93;;;20.90;99.90;;;;;;4990806;28;20963;-44
2021/06/10 04:34:32;;;;;;;6.97;6.30;;;20.90;99.90;;;;;;4993407;28;21064;-48
2021/06/10 04:37:00;;;;;;;7.20;6.50;;;20.90;99.90;;;;;;4986160;28;20495;-44
2021/06/10 04:39:26;;;;;;;10.20;6.43;;;20.90;99.90;;;;;;4979283;28;20469;-48
2021/06/10 04:41:52;;;;;;;8.33;6.23;;;20.90;99.90;;;;;;4980691;28;20435;-47
2021/06/10 04:44:19;;;;;;;8.80;5.90;;;20.90;99.90;;;;;;4980301;28;20482;-48
2021/06/10 04:46:45;;;;;;;10.73;7.10;;;20.90;99.90;;;;;;4980486;28;20482;-50
2021/06/10 04:49:12;;;;;;;6.57;5.87;;;20.90;99.90;;;;;;4981114;28;20466;-50
2021/06/10 04:51:38;;;;;;;6.87;6.27;;;20.90;99.90;;;;;;4980959;28;20500;-46
2021/06/10 04:54:06;;;;;;;7.40;6.33;;;20.90;99.90;;;;;;4977742;28;20450;-46
2021/06/10 04:56:32;;;;;;;6.97;5.60;;;20.90;99.90;;;;;;4978576;28;20423;-44
2021/06/10 04:58:58;;;;;;;6.40;5.80;;;20.90;99.90;;;;;;4978554;28;20454;-50
2021/06/10 05:01:25;;;;;;;7.07;5.97;;;20.90;99.90;;;;;;4978430;28;20461;-47
2021/06/10 05:03:51;;;;;;;11.27;6.30;;;21.00;99.90;;;;;;4980990;28;20874;-49
2021/06/10 05:06:17;;;;;;;8.03;6.50;;;21.10;99.90;;;;;;4978738;28;20447;-46
2021/06/10 05:08:43;;;;;;;7.43;6.60;;;21.20;99.90;;;;;;4978601;28;20902;-45
2021/06/10 05:11:11;;;;;;;7.30;6.33;;;21.30;99.90;;;;;;4978480;28;20812;-44
2021/06/10 05:13:37;;;;;;;7.30;6.37;;;21.50;99.90;;;;;;4978663;28;20462;-46
2021/06/10 05:16:04;;;;;;;6.47;5.97;;;21.70;99.90;;;;;;4978231;28;20937;-49
2021/06/10 05:18:30;;;;;;;7.47;5.80;;;21.80;99.90;;;;;;4982704;28;20447;-50
2021/06/10 05:20:57;;;;;;;6.57;5.33;;;21.90;99.90;;;;;;5001059;28;20442;-46
2021/06/10 05:23:23;;;;;;;8.23;4.77;;;22.00;99.90;;;;;;4997975;28;20489;-45
2021/06/10 05:25:49;;;;;;;12.00;6.13;;;22.10;99.90;;;;;;5000777;28;20449;-47
2021/06/10 05:28:17;;;;;;;7.87;5.90;;;22.20;99.90;;;;;;5017527;28;20453;-45
2021/06/10 05:30:43;;;;;;;10.50;6.20;;;22.20;99.90;;;;;;5017700;28;20964;-52
2021/06/10 05:33:09;;;;;;;8.67;6.80;;;22.30;99.90;;;;;;5017464;28;20943;-49
2021/06/10 05:35:36;;;;;;;8.27;6.60;;;22.40;99.90;;;;;;5016728;28;20433;-52
2021/06/10 05:38:02;;;;;;;9.43;6.40;;;22.40;99.90;;;;;;5016992;28;20464;-51
2021/06/10 05:40:28;;;;;;;7.73;5.83;;;22.50;99.90;;;;;;5016955;28;20452;-47
2021/06/10 05:42:55;;;;;;;7.40;5.90;;;22.60;99.90;;;;;;5016752;28;20445;-51
2021/06/10 05:45:22;;;;;;;5.93;5.43;;;22.70;99.90;;;;;;5016758;28;20476;-45
2021/06/10 05:47:49;;;;;;;10.17;5.73;;;22.90;99.90;;;;;;4992165;28;20520;-47
2021/06/10 05:50:16;;;;;;;12.10;6.50;;;23.00;99.90;;;;;;4981168;28;20980;-47
2021/06/10 05:52:43;;;;;;;5.87;5.27;;;23.10;99.90;;;;;;4985640;28;20953;-46
2021/06/10 05:55:10;;;;;;;6.23;4.80;;;23.20;99.50;;;;;;4983149;28;20447;-48
2021/06/10 05:57:37;;;;;;;6.30;5.70;;;23.30;98.70;;;;;;4990439;28;20984;-51
2021/06/10 06:00:06;;;;;;;6.40;4.87;;;23.40;98.50;;;;;;4982585;28;20443;-50
2021/06/10 06:02:34;;;;;;;10.73;5.63;;;23.50;97.60;;;;;;4991757;28;20787;-47
2021/06/10 06:05:01;;;;;;;6.83;6.20;;;23.60;97.00;;;;;;4995825;28;20793;-49
2021/06/10 06:07:27;;;;;;;10.77;5.03;;;23.70;96.60;;;;;;4990584;28;20447;-47
2021/06/10 06:09:54;;;;;;;10.33;5.97;;;23.80;96.40;;;;;;4991270;28;20947;-44
2021/06/10 06:12:22;;;;;;;7.87;5.80;;;23.80;96.00;;;;;;4991422;28;20450;-46
2021/06/10 06:14:48;;;;;;;9.60;5.47;;;23.80;95.80;;;;;;4988561;28;20516;-45
2021/06/10 06:17:15;;;;;;;8.47;5.13;;;23.90;95.60;;;;;;4996783;28;20454;-51
2021/06/10 06:19:44;;;;;;;8.70;5.50;;;23.90;95.40;;;;;;4991399;28;20556;-53
2021/06/10 06:22:11;;;;;;;8.83;6.53;;;23.80;95.60;;;;;;4997168;28;20450;-54
2021/06/10 06:24:37;;;;;;;8.87;5.37;;;23.90;95.50;;;;;;5018377;28;20437;-52
2021/06/10 06:27:07;;;;;;;9.13;6.40;;;23.90;95.10;;;;;;5018951;28;20453;-49
2021/06/10 06:29:33;;;;;;;8.57;5.93;;;23.80;94.20;;;;;;5019510;28;20446;-57
2021/06/10 06:32:00;;;;;;;8.00;6.00;;;24.00;94.50;;;;;;5018619;28;20481;-52
2021/06/10 06:34:27;;;;;;;11.37;6.30;;;24.00;94.10;;;;;;5019193;28;20449;-48
2021/06/10 06:36:54;;;;;;;6.23;5.43;;;24.10;94.20;;;;;;5009706;28;20873;-52
2021/06/10 06:39:21;;;;;;;7.47;5.50;;;24.20;94.20;;;;;;4994013;28;20462;-45
2021/06/10 06:41:47;;;;;;;6.60;5.53;;;24.20;94.00;;;;;;4995338;28;20925;-47
2021/06/10 06:44:13;;;;;;;8.20;5.60;;;24.20;94.00;;;;;;4994690;28;20497;-51
2021/06/10 06:46:39;;;;;;;6.50;5.50;;;24.20;94.20;;;;;;4995167;28;20532;-47
2021/06/10 06:49:06;;;;;;;7.77;5.83;;;24.30;94.30;;;;;;4995209;28;20446;-50
2021/06/10 06:51:32;;;;;;;7.80;6.50;;;24.40;93.80;;;;;;4994718;28;20492;-52
2021/06/10 06:54:00;;;;;;;7.60;4.93;;;24.50;93.10;;;;;;4994769;28;20460;-49
2021/06/10 06:56:26;;;;;;;5.50;5.00;;;24.70;93.30;;;;;;4982680;28;20538;-53
2021/06/10 06:58:53;;;;;;;14.73;6.70;;;24.90;92.50;;;;;;4978217;28;20623;-48
2021/06/10 07:01:19;;;;;;;7.20;5.80;;;25.00;92.00;;;;;;4977290;28;20458;-52
2021/06/10 07:03:45;;;;;;;6.13;5.50;;;25.20;91.60;;;;;;4977373;28;20447;-47
2021/06/10 07:06:12;;;;;;;5.50;4.90;;;25.40;91.90;;;;;;4977545;28;20461;-50
2021/06/10 07:08:38;;;;;;;10.30;5.57;;;25.60;90.50;;;;;;4976881;28;20458;-50
2021/06/10 07:11:06;;;;;;;6.50;4.90;;;25.80;90.20;;;;;;4977101;28;20501;-48
2021/06/10 07:13:33;;;;;;;6.57;5.37;;;26.00;90.00;;;;;;4976987;28;20450;-50
2021/06/10 07:15:59;;;;;;;7.50;4.57;;;26.40;89.10;;;;;;4982369;28;20458;-51
2021/06/10 07:18:26;;;;;;;6.13;5.53;;;26.90;86.40;;;;;;4998186;28;20539;-52
2021/06/10 07:20:54;;;;;;;6.23;4.97;;;27.80;80.10;;;;;;4997861;28;20438;-51
2021/06/10 07:23:20;;;;;;;5.37;4.90;;;29.00;75.10;;;;;;4993881;28;20450;-51
2021/06/10 07:25:46;;;;;;;13.13;4.60;;;30.20;69.40;;;;;;4996059;28;20494;-52
2021/06/10 07:28:14;;;;;;;5.73;4.40;;;31.20;63.90;;;;;;4997107;28;20458;-45
2021/06/10 07:30:41;;;;;;;8.00;4.40;;;32.30;59.00;;;;;;5004471;28;20481;-50
2021/06/10 07:33:07;;;;;;;5.70;4.10;;;33.30;54.20;;;;;;5017373;28;20446;-52
2021/06/10 07:35:35;;;;;;;9.07;5.20;;;34.10;51.50;;;;;;5016649;28;20450;-51
2021/06/10 07:38:04;;;;;;;5.37;4.87;;;34.90;49.10;;;;;;5016661;28;20924;-50
2021/06/10 07:40:31;;;;;;;5.30;4.73;;;35.70;46.80;;;;;;5017528;28;20439;-52
2021/06/10 07:42:58;;;;;;;4.97;4.57;;;36.20;44.90;;;;;;5016979;28;20525;-53
2021/06/10 07:45:27;;;;;;;5.87;5.40;;;36.70;43.70;;;;;;5017233;28;20430;-45
2021/06/10 07:47:54;;;;;;;7.40;5.60;;;37.20;42.50;;;;;;5016894;28;20505;-47
2021/06/10 07:50:21;;;;;;;5.70;5.10;;;37.30;42.00;;;;;;5016449;28;20477;-53
2021/06/10 07:52:48;;;;;;;7.30;5.47;;;37.80;41.40;;;;;;5016682;28;20437;-52
2021/06/10 07:55:15;;;;;;;10.23;5.63;;;38.20;41.10;;;;;;4997043;28;20442;-53
2021/06/10 07:57:41;;;;;;;6.00;5.40;;;38.40;40.20;;;;;;4995159;28;20477;-46
2021/06/10 08:00:09;;;;;;;6.13;5.53;;;38.40;40.10;;;;;;5005113;28;20492;-51
2021/06/10 08:02:37;;;;;;;10.53;8.10;;;38.80;39.90;;;;;;4994012;28;20920;-47
2021/06/10 08:05:05;;;;;;;6.50;5.90;;;39.00;38.60;;;;;;4994047;28;20461;-50
2021/06/10 08:07:31;;;;;;;10.73;6.83;;;38.60;39.10;;;;;;4994185;28;20446;-50
2021/06/10 08:09:57;;;;;;;6.77;6.17;;;38.50;39.20;;;;;;4993817;28;20473;-52
2021/06/10 09:45:06;;;;;;;6.73;6.13;;;36.60;39.90;;;;;;5503332;23;20517;-49
2021/06/10 09:47:35;;;;;;;7.57;6.97;;;36.80;39.80;;;;;;4996152;28;20454;-48
2021/06/10 10:03:04;;;;;;;6.60;6.00;;;36.70;38.10;;;;;;5963245;23;20412;-50
2021/06/10 10:10:41;;;;;;;8.73;6.37;;;36.00;39.50;;;;;;5575950;23;20485;-47
2021/06/10 10:23:31;;;;;;;6.10;5.50;;;36.00;39.00;;;;;;5648070;23;20478;-53
2021/06/10 10:25:59;;;;;;;5.70;5.20;;;35.60;39.60;;;;;;5016275;28;20430;-50
2021/06/10 10:28:28;;;;;;;6.20;5.70;;;35.40;40.40;;;;;;5015351;28;20442;-51
2021/06/10 10:30:55;;;;;;;5.20;4.70;;;35.30;40.40;;;;;;5018160;28;20474;-49
2021/06/10 10:33:28;;;;;;;6.90;6.20;;;35.30;40.80;;;;;;5527455;23;20470;-52
2021/06/10 10:35:57;;;;;;;6.17;5.57;;;35.20;40.40;;;;;;4998143;28;20517;-47
2021/06/10 10:38:32;;;;;;;7.50;6.80;;;34.90;40.90;;;;;;4976021;28;20842;-47
2021/06/10 10:41:00;;;;;;;6.43;5.83;;;34.60;40.70;;;;;;4985700;28;20923;-47
2021/06/10 10:43:28;;;;;;;6.30;5.80;;;34.20;41.80;;;;;;4995247;28;20434;-47
2021/06/10 10:53:45;;;;;;;5.77;5.07;;;32.40;43.80;;;;;;5063776;23;20972;-50
2021/06/10 10:59:11;;;;;;;6.27;5.70;;;31.30;45.80;;;;;;5498869;23;20497;-52
2021/06/10 11:59:17;;;;;;;5.10;4.70;;;30.50;46.60;;;;;;5402025;23;20489;-52
2021/06/10 12:01:56;;;;;;;5.40;4.73;;;30.20;46.90;;;;;;4997453;28;20449;-49
2021/06/10 12:04:26;;;;;;;5.20;4.17;;;30.10;47.20;;;;;;4999215;28;20453;-48
2021/06/10 12:07:04;;;;;;;6.30;5.70;;;29.90;47.60;;;;;;4998611;28;20450;-50
2021/06/10 12:09:30;;;;;;;5.63;5.23;;;29.80;47.40;;;;;;4998959;28;20935;-50
2021/06/10 12:11:56;;;;;;;5.60;4.90;;;30.00;48.30;;;;;;4997914;28;20497;-46
2021/06/10 12:14:36;;;;;;;5.47;4.70;;;30.10;48.20;;;;;;4998699;28;20446;-49
2021/06/10 12:17:05;;;;;;;5.93;4.50;;;30.40;47.90;;;;;;4995913;28;20458;-47
2021/06/10 12:19:32;;;;;;;6.60;4.77;;;30.50;47.00;;;;;;4998135;28;20492;-47
2021/06/10 12:22:01;;;;;;;5.17;4.77;;;30.60;46.60;;;;;;4987435;28;20442;-44
2021/06/10 12:24:41;;;;;;;4.93;4.43;;;30.50;46.80;;;;;;4992870;28;20434;-50
2021/06/10 12:27:13;;;;;;;6.40;4.73;;;30.30;47.40;;;;;;4991639;28;20469;-51
2021/06/10 12:29:49;;;;;;;5.60;5.10;;;30.00;46.50;;;;;;4988361;28;20451;-45
2021/06/10 12:32:25;;;;;;;6.53;4.93;;;29.80;46.90;;;;;;4989656;28;20535;-49
2021/06/10 12:34:56;;;;;;;9.17;5.30;;;29.80;47.30;;;;;;4993190;28;20457;-47
2021/06/10 12:37:23;;;;;;;4.30;3.70;;;29.80;47.40;;;;;;4991300;28;20456;-49
2021/06/10 12:39:49;;;;;;;4.50;3.80;;;30.00;44.70;;;;;;4987758;28;20442;-50
2021/06/10 12:42:15;;;;;;;4.60;3.63;;;29.90;42.10;;;;;;4993157;28;20474;-45
2021/06/10 12:44:42;;;;;;;7.40;3.63;;;29.80;40.60;;;;;;4988722;28;20897;-52
2021/06/10 12:47:11;;;;;;;3.87;3.57;;;29.80;40.90;;;;;;4990529;28;20445;-52
2021/06/10 12:49:43;;;;;;;3.43;3.23;;;29.80;41.80;;;;;;4997415;28;20548;-51
2021/06/10 12:52:12;;;;;;;4.30;3.90;;;29.80;42.70;;;;;;4996999;28;20887;-48
2021/06/10 12:54:39;;;;;;;8.00;4.23;;;29.90;43.10;;;;;;4997215;28;20445;-50
2021/06/10 12:57:05;;;;;;;4.03;3.73;;;30.10;43.80;;;;;;4997437;28;20890;-53
2021/06/10 12:59:35;;;;;;;6.47;4.30;;;30.10;43.30;;;;;;4996614;28;20812;-52
2021/06/10 13:02:07;;;;;;;4.53;4.17;;;30.10;42.60;;;;;;4997092;28;20540;-47
2021/06/10 13:04:36;;;;;;;5.10;4.10;;;30.00;42.70;;;;;;4996917;28;20456;-49
2021/06/10 13:07:03;;;;;;;4.40;4.00;;;29.80;42.70;;;;;;4994984;28;20488;-51
2021/06/10 13:09:29;;;;;;;5.03;3.97;;;29.70;42.60;;;;;;4990410;28;20450;-51
2021/06/10 13:12:17;;;;;;;4.50;4.10;;;29.90;43.00;;;;;;4991491;28;20552;-47
2021/06/10 13:14:45;;;;;;;4.00;3.70;;;29.80;41.30;;;;;;4984707;28;20548;-52
2021/06/10 13:17:13;;;;;;;5.30;4.00;;;29.70;41.70;;;;;;4985655;28;20469;-52
2021/06/10 13:19:48;;;;;;;4.60;4.20;;;29.70;42.10;;;;;;4994168;28;20457;-47
2021/06/10 13:22:16;;;;;;;5.00;3.40;;;29.60;42.90;;;;;;4996432;28;20449;-49
2021/06/10 13:24:45;;;;;;;3.83;3.53;;;29.70;42.30;;;;;;4996660;28;20491;-49
2021/06/10 13:27:22;;;;;;;8.67;4.40;;;29.70;42.40;;;;;;4996819;28;20454;-48
2021/06/10 13:29:51;;;;;;;4.33;3.93;;;29.70;43.10;;;;;;4996399;28;20548;-48
2021/06/10 13:32:28;;;;;;;6.63;6.00;;;29.80;43.00;;;;;;4996273;28;20482;-47
2021/06/10 13:35:00;;;;;;;6.00;4.67;;;29.80;43.00;;;;;;4996208;28;20450;-49
2021/06/10 13:37:27;;;;;;;4.50;4.10;;;29.90;42.10;;;;;;4993408;28;20554;-51
2021/06/10 13:39:53;;;;;;;7.43;4.40;;;29.80;42.70;;;;;;4979148;28;20443;-51
2021/06/10 13:42:21;;;;;;;6.87;5.77;;;29.80;44.10;;;;;;4976854;28;20466;-48
2021/06/10 13:44:48;;;;;;;4.50;4.10;;;29.90;43.80;;;;;;4976547;28;20918;-50
2021/06/10 13:47:15;;;;;;;4.73;3.80;;;29.90;43.70;;;;;;4976911;28;20457;-50
2021/06/10 13:49:43;;;;;;;4.70;4.30;;;29.90;41.80;;;;;;4976702;28;20459;-50
2021/06/10 13:52:11;;;;;;;4.07;3.77;;;30.00;42.20;;;;;;4984136;28;20509;-48
2021/06/10 13:54:37;;;;;;;4.23;3.80;;;30.00;42.10;;;;;;4977380;28;20517;-50
2021/06/10 13:57:04;;;;;;;4.00;3.67;;;30.00;42.30;;;;;;4985585;28;20450;-53
2021/06/10 13:59:30;;;;;;;4.33;4.03;;;30.00;42.20;;;;;;4986728;28;20485;-49
2021/06/10 14:01:57;;;;;;;3.90;3.60;;;30.00;42.50;;;;;;4981100;28;20447;-49
2021/06/10 14:04:23;;;;;;;3.80;3.50;;;30.10;42.60;;;;;;4976547;28;20806;-48
2021/06/10 14:06:49;;;;;;;8.73;3.83;;;30.10;42.10;;;;;;4976422;28;20447;-47
2021/06/10 14:09:17;;;;;;;3.80;3.10;;;30.10;41.90;;;;;;4976096;28;20466;-45
2021/06/10 14:11:43;;;;;;;4.50;4.13;;;30.20;42.20;;;;;;4976157;28;20483;-51
2021/06/10 14:14:09;;;;;;;5.57;5.07;;;30.20;42.20;;;;;;4977684;28;20451;-51
2021/06/10 14:16:36;;;;;;;4.00;3.70;;;30.10;42.20;;;;;;4977813;28;20989;-49
2021/06/10 14:19:06;;;;;;;3.90;3.27;;;30.10;42.20;;;;;;4977743;28;20489;-48
2021/06/10 14:21:33;;;;;;;6.63;5.17;;;30.10;42.40;;;;;;4977646;28;20466;-50
2021/06/10 14:23:59;;;;;;;4.33;4.03;;;30.10;43.50;;;;;;4976326;28;20463;-52
2021/06/10 14:26:27;;;;;;;6.03;4.40;;;30.20;44.40;;;;;;4975878;28;20774;-46
2021/06/10 14:29:02;;;;;;;4.20;3.90;;;30.30;44.30;;;;;;4976484;28;20541;-50
2021/06/10 14:34:13;;;;;;;5.00;3.57;;;30.30;43.80;;;;;;4977522;28;20465;-46
2021/06/10 14:36:40;;;;;;;5.20;4.30;;;30.30;43.20;;;;;;4987036;28;20465;-50
2021/06/10 14:39:07;;;;;;;4.10;3.80;;;30.20;43.30;;;;;;4988449;28;20844;-47
2021/06/10 14:41:37;;;;;;;4.93;4.53;;;30.20;43.80;;;;;;4986735;28;20466;-48
2021/06/10 14:44:03;;;;;;;5.70;3.80;;;30.40;44.20;;;;;;4982323;28;20443;-51
2021/06/10 14:46:30;;;;;;;4.60;4.20;;;30.50;44.30;;;;;;4981618;28;20992;-49
2021/06/10 14:48:56;;;;;;;4.47;4.07;;;30.50;43.40;;;;;;4976356;28;20462;-49
2021/06/10 14:51:22;;;;;;;5.93;4.17;;;30.50;44.10;;;;;;4976504;28;20486;-52
2021/06/10 14:53:49;;;;;;;5.17;4.00;;;30.50;44.00;;;;;;4976045;28;20439;-50
2021/06/10 14:56:15;;;;;;;7.93;4.50;;;30.30;44.00;;;;;;4976223;28;20463;-51
2021/06/10 14:58:42;;;;;;;9.47;4.80;;;30.20;44.30;;;;;;4975915;28;20479;-47
2021/06/10 15:01:09;;;;;;;6.23;4.07;;;30.10;44.70;;;;;;4976045;28;20450;-44
2021/06/10 15:03:35;;;;;;;4.53;4.10;;;30.10;45.10;;;;;;4976192;28;20451;-52
2021/06/10 15:06:01;;;;;;;4.90;4.47;;;30.00;44.50;;;;;;4975473;28;20490;-47
2021/06/10 15:08:28;;;;;;;4.47;4.13;;;29.90;45.00;;;;;;4975080;28;20447;-53
2021/06/10 15:10:54;;;;;;;4.90;4.50;;;29.80;45.30;;;;;;4980479;28;20871;-47
2021/06/10 15:13:21;;;;;;;5.90;4.30;;;29.70;45.90;;;;;;4984110;28;20450;-51
2021/06/10 15:15:48;;;;;;;4.80;4.50;;;29.60;45.80;;;;;;4987318;28;20455;-51
2021/06/10 15:18:14;;;;;;;5.00;4.57;;;29.60;46.20;;;;;;4981376;28;20446;-53
2021/06/10 15:20:40;;;;;;;4.97;4.47;;;29.70;46.70;;;;;;4991084;28;20446;-50
2021/06/10 15:23:07;;;;;;;5.63;4.63;;;29.70;46.20;;;;;;4994252;28;20449;-48
2021/06/10 15:25:33;;;;;;;7.40;4.57;;;29.80;46.40;;;;;;4984393;28;20912;-53
2021/06/10 15:28:00;;;;;;;5.57;4.87;;;29.80;46.00;;;;;;4983378;28;20542;-48
2021/06/10 15:30:26;;;;;;;6.90;5.00;;;29.90;46.30;;;;;;4981514;28;20450;-53
2021/06/10 15:32:54;;;;;;;4.90;4.43;;;29.90;46.20;;;;;;4983244;28;20478;-46
2021/06/10 15:35:21;;;;;;;6.07;5.07;;;29.90;46.70;;;;;;4981976;28;20797;-50
2021/06/10 15:37:47;;;;;;;8.30;4.83;;;30.00;46.80;;;;;;4983732;28;20454;-53
2021/06/10 15:40:13;;;;;;;5.90;4.80;;;29.90;46.10;;;;;;4987428;28;20811;-47
2021/06/10 15:42:39;;;;;;;5.73;5.23;;;29.80;46.50;;;;;;4979368;28;20892;-47
2021/06/10 15:45:07;;;;;;;9.20;4.63;;;29.80;46.30;;;;;;4990877;28;20445;-52
2021/06/10 15:47:35;;;;;;;6.67;4.27;;;29.70;46.90;;;;;;4992797;28;20781;-50
2021/06/10 15:50:03;;;;;;;6.60;5.10;;;29.60;46.60;;;;;;4993785;28;20462;-49
2021/06/10 15:52:29;;;;;;;4.60;4.20;;;29.60;46.80;;;;;;4993326;28;20474;-49
2021/06/10 15:54:55;;;;;;;5.67;5.17;;;29.50;47.10;;;;;;4993963;28;20991;-52
2021/06/10 15:57:25;;;;;;;5.00;4.60;;;29.50;46.90;;;;;;4994139;28;20453;-52
2021/06/10 15:59:52;;;;;;;6.00;5.37;;;29.40;47.00;;;;;;4993879;28;20477;-51
2021/06/10 16:02:19;;;;;;;6.50;5.23;;;29.40;46.50;;;;;;4993850;28;20560;-52
2021/06/10 16:04:45;;;;;;;4.67;4.27;;;29.30;46.80;;;;;;4994147;28;20450;-51
2021/06/10 16:07:13;;;;;;;6.23;4.70;;;29.20;47.10;;;;;;4982601;28;20486;-52
2021/06/10 16:09:40;;;;;;;5.87;4.87;;;29.20;47.20;;;;;;4989488;28;20466;-50
2021/06/10 17:16:20;;;;;;;10.20;4.97;;;27.50;50.50;;;;;;5073109;23;20465;-51
2021/06/10 17:18:46;;;;;;;6.23;4.90;;;27.50;50.60;;;;;;4962285;28;20443;-49
2021/06/10 17:21:13;;;;;;;6.93;4.20;;;27.50;50.50;;;;;;5291449;23;20498;-45
2021/06/10 17:23:39;;;;;;;5.47;4.90;;;27.40;50.40;;;;;;4976866;28;20459;-47
2021/06/10 17:26:06;;;;;;;6.47;5.87;;;27.40;50.50;;;;;;4976691;28;20459;-46
2021/06/10 17:28:32;;;;;;;4.97;4.57;;;27.40;50.50;;;;;;4977088;28;20455;-49
2021/06/10 17:30:58;;;;;;;6.40;5.80;;;27.30;50.60;;;;;;4985604;28;20921;-46
2021/06/10 17:33:26;;;;;;;12.23;5.97;;;27.30;50.90;;;;;;4987989;28;20542;-52
2021/06/10 17:35:52;;;;;;;5.27;4.87;;;27.30;50.60;;;;;;4970708;28;20452;-51
2021/06/10 17:38:18;;;;;;;6.60;6.00;;;27.30;50.30;;;;;;4989856;28;20458;-47
2021/06/10 17:40:45;;;;;;;6.10;5.33;;;27.20;50.40;;;;;;4996091;28;20453;-51
2021/06/10 17:43:11;;;;;;;5.73;5.23;;;27.10;50.70;;;;;;4995172;28;21142;-50
2021/06/10 17:45:39;;;;;;;6.20;5.70;;;27.00;50.20;;;;;;4996000;28;20980;-45
2021/06/10 17:48:07;;;;;;;7.17;5.90;;;27.00;50.50;;;;;;4996284;28;20458;-46
2021/06/10 17:50:35;;;;;;;7.67;5.10;;;26.90;49.90;;;;;;4995837;28;20456;-49
2021/06/10 17:53:02;;;;;;;5.80;5.30;;;26.80;49.90;;;;;;4995980;28;20489;-51